createdAt,value
2019-05-20T00:00:25.813Z,99003.04
2019-05-20T00:03:30.004Z,99000.16
2019-05-20T00:06:33.937Z,98996.55
2019-05-20T00:09:38.768Z,98990.72
2019-05-20T00:12:42.887Z,98990.95
2019-05-20T00:15:47.005Z,98989.08
2019-05-20T00:18:51.287Z,98990.27
2019-05-20T00:21:55.844Z,98986.28
2019-05-20T00:25:00.279Z,98995.55
2019-05-20T00:28:04.499Z,98994.52
2019-05-20T00:31:08.824Z,98991.05
2019-05-20T00:34:13.268Z,98984.73
2019-05-20T00:37:17.562Z,98986.34
2019-05-20T00:40:22.321Z,98991.34
2019-05-20T00:43:27.320Z,98989.70
2019-05-20T00:46:31.385Z,98989.44
2019-05-20T00:49:35.290Z,98986.48
2019-05-20T00:52:39.691Z,98987.77
2019-05-20T00:55:43.689Z,98995.02
2019-05-20T00:58:48.238Z,98981.14
2019-05-20T01:01:53.303Z,98988.41
2019-05-20T01:04:57.565Z,98981.97
2019-05-20T01:08:01.507Z,98988.59
2019-05-20T01:11:05.674Z,98990.68
2019-05-20T01:14:10.261Z,98984.38
2019-05-20T01:17:14.347Z,98982.05
2019-05-20T01:20:18.819Z,98980.55
2019-05-20T01:23:22.983Z,98978.70
2019-05-20T01:26:27.427Z,98967.85
2019-05-20T01:29:31.285Z,98970.36
2019-05-20T01:32:35.936Z,98965.80
2019-05-20T01:35:40.098Z,98965.20
2019-05-20T01:38:44.215Z,98970.28
2019-05-20T01:41:49.194Z,98966.13
2019-05-20T01:44:53.488Z,98963.34
2019-05-20T01:47:58.379Z,98956.47
2019-05-20T01:51:02.610Z,98949.24
2019-05-20T01:54:07.174Z,98956.58
2019-05-20T01:57:11.409Z,98948.92
2019-05-20T02:00:16.192Z,98956.36
2019-05-20T02:03:31.251Z,98964.52
2019-05-20T02:06:27.131Z,98964.89
2019-05-20T02:09:31.249Z,98971.16
2019-05-20T02:12:35.875Z,98970.67
2019-05-20T02:15:55.453Z,98978.96
2019-05-20T02:19:00.083Z,98975.00
2019-05-20T02:22:04.101Z,98977.22
2019-05-20T02:25:08.111Z,98977.70
2019-05-20T02:28:12.556Z,98985.59
2019-05-20T02:31:16.593Z,98976.46
2019-05-20T02:34:20.511Z,98979.28
2019-05-20T02:37:25.102Z,98979.33
2019-05-20T02:40:29.328Z,98971.40
2019-05-20T02:43:33.533Z,98981.05
2019-05-20T02:46:37.532Z,98983.41
2019-05-20T02:49:41.998Z,98973.52
2019-05-20T02:52:46.608Z,98976.11
2019-05-20T02:55:50.859Z,98975.13
2019-05-20T02:58:54.971Z,98969.70
2019-05-20T03:01:59.169Z,98967.80
2019-05-20T03:05:03.029Z,98969.74
2019-05-20T03:08:07.391Z,98967.17
2019-05-20T03:11:11.625Z,98979.22
2019-05-20T03:14:15.948Z,98968.62
2019-05-20T03:17:20.486Z,98967.27
2019-05-20T03:20:24.492Z,98971.97
2019-05-20T03:23:28.501Z,98974.20
2019-05-20T03:26:32.428Z,98969.53
2019-05-20T03:29:36.890Z,98976.97
2019-05-20T03:32:41.645Z,98978.67
2019-05-20T03:35:45.809Z,98974.61
2019-05-20T03:38:50.230Z,98984.00
2019-05-20T03:41:54.974Z,98990.27
2019-05-20T03:44:59.315Z,98980.66
2019-05-20T03:48:03.909Z,98983.27
2019-05-20T03:51:08.850Z,98978.36
2019-05-20T03:54:13.276Z,98985.31
2019-05-20T03:57:17.203Z,98985.80
2019-05-20T04:00:37.661Z,98985.70
2019-05-20T04:03:42.144Z,98983.14
2019-05-20T04:06:46.757Z,98978.81
2019-05-20T04:09:50.867Z,98974.64
2019-05-20T04:12:55.304Z,98980.34
2019-05-20T04:16:00.548Z,98978.52
2019-05-20T04:19:04.795Z,98975.09
2019-05-20T04:22:08.963Z,98971.25
2019-05-20T04:25:13.151Z,98967.67
2019-05-20T04:28:17.628Z,98961.14
2019-05-20T04:31:21.631Z,98967.61
2019-05-20T04:34:25.717Z,98961.70
2019-05-20T04:37:30.140Z,98957.89
2019-05-20T04:40:34.141Z,98955.03
2019-05-20T04:43:38.615Z,98955.08
2019-05-20T04:46:43.613Z,98953.12
2019-05-20T04:49:48.199Z,98959.56
2019-05-20T04:52:52.864Z,98958.36
2019-05-20T04:55:57.685Z,98955.27
2019-05-20T04:59:01.919Z,98954.70
2019-05-20T05:02:06.238Z,98946.44
2019-05-20T05:05:10.615Z,98949.91
2019-05-20T05:08:14.717Z,98960.03
2019-05-20T05:11:19.273Z,98963.13
2019-05-20T05:14:23.205Z,98962.91
2019-05-20T05:17:27.254Z,98960.94
2019-05-20T05:20:31.979Z,98961.69
2019-05-20T05:23:36.550Z,98962.11
2019-05-20T05:26:40.803Z,98963.35
2019-05-20T05:29:45.058Z,98968.41
2019-05-20T05:32:49.293Z,98966.05
2019-05-20T05:35:53.963Z,98975.23
2019-05-20T05:38:58.624Z,98977.20
2019-05-20T05:42:03.433Z,98989.19
2019-05-20T05:45:08.473Z,98977.05
2019-05-20T05:48:12.327Z,98980.13
2019-05-20T05:51:16.587Z,98980.37
2019-05-20T05:54:20.978Z,98984.94
2019-05-20T05:57:25.776Z,98991.88
2019-05-20T06:00:29.955Z,98988.27
2019-05-20T06:03:34.180Z,98991.72
2019-05-20T06:06:38.442Z,98986.16
2019-05-20T06:09:42.363Z,98990.34
2019-05-20T06:12:46.841Z,98992.29
2019-05-20T06:15:50.768Z,98991.39
2019-05-20T06:18:55.113Z,98988.67
2019-05-20T06:21:59.033Z,98997.06
2019-05-20T06:25:03.680Z,98995.70
2019-05-20T06:28:07.664Z,98996.06
2019-05-20T06:31:11.687Z,99000.88
2019-05-20T06:34:15.663Z,99001.16
2019-05-20T06:37:21.590Z,99006.17
2019-05-20T06:40:25.605Z,98999.61
2019-05-20T06:43:30.119Z,99005.46
2019-05-20T06:46:34.352Z,99002.98
2019-05-20T06:49:38.813Z,99002.13
2019-05-20T06:52:42.839Z,99016.38
2019-05-20T06:55:47.173Z,99017.48
2019-05-20T06:58:51.277Z,99023.66
2019-05-20T07:01:56.112Z,99020.82
2019-05-20T07:05:00.637Z,99022.53
2019-05-20T07:08:05.057Z,99025.33
2019-05-20T07:11:09.690Z,99028.98
2019-05-20T07:14:14.444Z,99026.25
2019-05-20T07:17:18.753Z,99020.45
2019-05-20T07:20:23.066Z,99015.84
2019-05-20T07:23:27.388Z,99019.13
2019-05-20T07:26:31.670Z,99008.49
2019-05-20T07:29:36.167Z,99008.77
2019-05-20T07:32:40.385Z,99014.24
2019-05-20T07:35:44.782Z,99013.62
2019-05-20T07:38:49.053Z,99013.12
2019-05-20T07:41:53.317Z,99014.32
2019-05-20T07:44:57.775Z,99015.52
2019-05-20T07:48:02.423Z,99016.30
2019-05-20T07:51:07.678Z,99001.63
2019-05-20T07:54:13.238Z,99004.80
2019-05-20T07:57:20.642Z,99006.73
2019-05-20T08:00:24.694Z,99003.75
2019-05-20T08:03:28.725Z,99000.11
2019-05-20T08:06:32.820Z,98996.61
2019-05-20T08:09:44.653Z,98997.48
2019-05-20T08:12:42.818Z,98998.30
2019-05-20T08:15:46.729Z,98997.01
2019-05-20T08:18:51.045Z,99005.98
2019-05-20T08:21:55.285Z,99004.54
2019-05-20T08:24:59.276Z,99003.46
2019-05-20T08:28:03.544Z,99003.31
2019-05-20T08:31:07.775Z,99004.94
2019-05-20T08:34:12.032Z,98999.27
2019-05-20T08:37:16.559Z,99009.23
2019-05-20T08:40:20.692Z,99021.00
2019-05-20T08:43:25.000Z,99016.16
2019-05-20T08:46:29.929Z,99030.99
2019-05-20T08:49:34.688Z,99028.28
2019-05-20T08:52:39.358Z,99034.09
2019-05-20T08:55:43.592Z,99039.73
2019-05-20T08:58:47.739Z,99040.30
2019-05-20T09:01:52.060Z,99045.84
2019-05-20T09:04:56.594Z,99047.95
2019-05-20T09:08:03.427Z,99051.05
2019-05-20T09:11:06.343Z,99048.71
2019-05-20T09:14:10.713Z,99047.95
2019-05-20T09:17:15.001Z,99058.12
2019-05-20T09:20:19.746Z,99056.48
2019-05-20T09:23:24.090Z,99056.30
2019-05-20T09:26:28.488Z,99054.08
2019-05-20T09:29:32.656Z,99056.17
2019-05-20T09:32:37.242Z,99059.19
2019-05-20T09:35:42.009Z,99056.20
2019-05-20T09:38:46.286Z,99051.44
2019-05-20T09:41:50.525Z,99052.59
2019-05-20T09:44:55.264Z,99053.37
2019-05-20T09:47:59.485Z,99059.09
2019-05-20T09:51:03.743Z,99049.86
2019-05-20T09:54:08.008Z,99046.30
2019-05-20T09:57:12.434Z,99059.56
2019-05-20T10:00:16.927Z,99062.55
2019-05-20T10:03:21.488Z,99071.00
2019-05-20T10:06:26.059Z,99071.00
2019-05-20T10:09:30.338Z,99069.97
2019-05-20T10:12:45.262Z,99069.97
2019-05-20T10:15:39.910Z,99065.51
2019-05-20T10:18:43.913Z,99065.51
2019-05-20T10:21:47.900Z,99070.15
2019-05-20T10:24:51.831Z,99065.39
2019-05-20T10:27:57.759Z,99056.98
2019-05-20T10:31:02.030Z,99052.19
2019-05-20T10:34:06.140Z,99050.50
2019-05-20T10:37:10.142Z,99059.16
2019-05-20T10:40:14.693Z,99056.46
2019-05-20T10:43:19.236Z,99062.16
2019-05-20T10:46:23.340Z,99058.45
2019-05-20T10:49:27.447Z,99058.20
2019-05-20T10:52:31.605Z,99060.31
2019-05-20T10:55:36.018Z,99063.09
2019-05-20T10:58:40.111Z,99068.19
2019-05-20T11:01:44.389Z,99060.81
2019-05-20T11:04:48.496Z,99060.81
2019-05-20T11:07:53.328Z,99061.64
2019-05-20T11:10:57.160Z,99061.64
2019-05-20T11:14:01.309Z,99057.09
2019-05-20T11:17:05.234Z,99058.33
2019-05-20T11:20:09.722Z,99053.05
2019-05-20T11:23:14.226Z,99052.79
2019-05-20T11:26:18.959Z,99056.59
2019-05-20T11:29:23.156Z,99056.59
2019-05-20T11:32:27.181Z,99046.72
2019-05-20T11:35:31.128Z,99037.31
2019-05-20T11:38:35.129Z,99038.42
2019-05-20T11:41:52.928Z,99038.42
2019-05-20T11:44:45.075Z,99029.88
2019-05-20T11:47:49.274Z,99029.88
2019-05-20T11:50:53.283Z,99027.13
2019-05-20T11:53:57.137Z,99022.59
2019-05-20T11:57:01.555Z,99011.55
2019-05-20T12:00:06.185Z,99011.55
2019-05-20T12:03:10.845Z,99001.07
2019-05-20T12:06:14.804Z,99014.09
2019-05-20T12:09:18.734Z,99013.76
2019-05-20T12:12:23.361Z,99018.17
2019-05-20T12:15:27.624Z,99008.99
2019-05-20T12:18:32.335Z,99009.80
2019-05-20T12:21:36.665Z,99013.46
2019-05-20T12:24:41.363Z,99006.40
2019-05-20T12:27:45.842Z,99008.58
2019-05-20T12:30:50.104Z,99004.98
2019-05-20T12:33:54.049Z,98994.90
2019-05-20T12:36:58.019Z,98988.84
2019-05-20T12:40:07.605Z,98991.09
2019-05-20T12:43:08.225Z,98993.81
2019-05-20T12:46:12.157Z,98997.86
2019-05-20T12:49:16.313Z,98995.81
2019-05-20T12:52:20.622Z,99004.06
2019-05-20T12:55:24.655Z,98995.13
2019-05-20T12:58:28.986Z,98997.71
2019-05-20T13:01:33.082Z,98999.62
2019-05-20T13:04:37.496Z,99011.75
2019-05-20T13:07:41.797Z,99015.88
2019-05-20T13:10:46.507Z,99021.23
2019-05-20T13:13:50.793Z,99007.27
2019-05-20T13:16:54.645Z,99022.78
2019-05-20T13:19:58.856Z,99023.48
2019-05-20T13:23:06.153Z,99012.41
2019-05-20T13:26:09.869Z,99014.20
2019-05-20T13:29:14.312Z,99006.26
2019-05-20T13:32:18.508Z,99007.67
2019-05-20T13:35:22.730Z,99005.94
2019-05-20T13:38:26.659Z,99007.03
2019-05-20T13:41:31.577Z,99009.87
2019-05-20T13:44:36.129Z,98996.16
2019-05-20T13:47:40.862Z,98996.51
2019-05-20T13:50:45.116Z,98995.50
2019-05-20T13:53:49.461Z,98998.86
2019-05-20T13:56:53.868Z,98998.84
2019-05-20T13:59:58.026Z,98998.78
2019-05-20T14:03:02.011Z,99007.67
2019-05-20T14:06:06.121Z,99008.48
2019-05-20T14:09:10.685Z,99015.70
2019-05-20T14:12:14.957Z,99026.86
2019-05-20T14:15:19.353Z,99035.70
2019-05-20T14:18:23.875Z,99048.67
2019-05-20T14:21:28.188Z,99047.19
2019-05-20T14:24:32.317Z,99045.64
2019-05-20T14:27:36.319Z,99060.39
2019-05-20T14:30:40.629Z,99064.01
2019-05-20T14:33:45.146Z,99068.61
2019-05-20T14:36:52.692Z,99077.31
2019-05-20T14:39:54.934Z,99062.42
2019-05-20T14:42:58.992Z,99072.17
2019-05-20T14:46:03.697Z,99078.58
2019-05-20T14:49:08.213Z,99078.58
2019-05-20T14:52:12.434Z,99087.14
2019-05-20T14:55:16.463Z,99088.22
2019-05-20T14:58:20.479Z,99096.90
2019-05-20T15:01:24.950Z,99104.20
2019-05-20T15:04:29.087Z,99110.53
2019-05-20T15:07:33.041Z,99109.94
2019-05-20T15:10:37.293Z,99119.48
2019-05-20T15:13:41.998Z,99117.91
2019-05-20T15:16:46.262Z,99121.38
2019-05-20T15:19:50.911Z,99127.45
2019-05-20T15:22:55.399Z,99128.05
2019-05-20T15:25:59.680Z,99138.20
2019-05-20T15:29:04.561Z,99129.77
2019-05-20T15:32:09.310Z,99133.70
2019-05-20T15:35:13.443Z,99133.98
2019-05-20T15:38:18.813Z,99143.77
2019-05-20T15:41:23.205Z,99143.06
2019-05-20T15:44:27.665Z,99139.59
2019-05-20T15:47:32.493Z,99135.36
2019-05-20T15:50:36.739Z,99127.05
2019-05-20T15:53:41.038Z,99127.41
2019-05-20T15:56:45.703Z,99125.22
2019-05-20T15:59:49.894Z,99126.11
2019-05-20T16:02:53.916Z,99121.03
2019-05-20T16:06:00.018Z,99124.00
2019-05-20T16:09:05.198Z,99119.20
2019-05-20T16:12:09.695Z,99120.88
2019-05-20T16:15:14.107Z,99117.38
2019-05-20T16:18:18.642Z,99113.97
2019-05-20T16:21:23.339Z,99105.78
2019-05-20T16:24:27.289Z,99099.83
2019-05-20T16:27:32.830Z,99108.84
2019-05-20T16:30:37.028Z,99109.59
2019-05-20T16:33:41.423Z,99114.31
2019-05-20T16:36:45.757Z,99116.80
2019-05-20T16:39:50.581Z,99126.97
2019-05-20T16:42:54.846Z,99136.80
2019-05-20T16:45:58.863Z,99133.60
2019-05-20T16:49:03.113Z,99131.39
2019-05-20T16:52:07.106Z,99139.61
2019-05-20T16:55:11.355Z,99143.95
2019-05-20T16:58:15.600Z,99143.05
2019-05-20T17:01:19.802Z,99139.45
2019-05-20T17:04:23.929Z,99143.67
2019-05-20T17:07:28.024Z,99137.10
2019-05-20T17:10:31.903Z,99142.56
2019-05-20T17:13:36.170Z,99142.22
2019-05-20T17:16:40.326Z,99127.58
2019-05-20T17:19:44.726Z,99115.67
2019-05-20T17:22:49.049Z,99100.57
2019-05-20T17:25:53.520Z,99089.04
2019-05-20T17:28:58.100Z,99093.28
2019-05-20T17:32:02.333Z,99089.18
2019-05-20T17:35:06.667Z,99083.26
2019-05-20T17:38:10.997Z,99074.20
2019-05-20T17:41:15.208Z,99074.47
2019-05-20T17:44:20.032Z,99100.77
2019-05-20T17:47:25.025Z,99106.70
2019-05-20T17:50:29.034Z,99099.25
2019-05-20T17:53:33.935Z,99105.96
2019-05-20T17:56:37.997Z,99105.35
2019-05-20T17:59:42.369Z,99097.31
2019-05-20T18:02:47.029Z,99110.06
2019-05-20T18:05:51.338Z,99111.53
2019-05-20T18:08:57.002Z,99112.88
2019-05-20T18:12:01.293Z,99116.25
2019-05-20T18:15:05.862Z,99117.73
2019-05-20T18:18:10.720Z,99110.06
2019-05-20T18:21:15.285Z,99111.55
2019-05-20T18:24:19.571Z,99114.41
2019-05-20T18:27:23.677Z,99122.20
2019-05-20T18:30:28.067Z,99133.45
2019-05-20T18:33:32.592Z,99137.92
2019-05-20T18:36:36.510Z,99132.97
2019-05-20T18:39:40.697Z,99134.09
2019-05-20T18:42:45.341Z,99144.88
2019-05-20T18:45:50.185Z,99147.98
2019-05-20T18:48:54.399Z,99150.55
2019-05-20T18:51:59.028Z,99149.69
2019-05-20T18:55:03.367Z,99149.31
2019-05-20T18:58:07.566Z,99151.05
2019-05-20T19:01:11.580Z,99147.61
2019-05-20T19:04:15.607Z,99151.20
2019-05-20T19:07:19.959Z,99149.83
2019-05-20T19:10:24.832Z,99151.20
2019-05-20T19:13:29.131Z,99140.30
2019-05-20T19:16:33.552Z,99148.32
2019-05-20T19:19:37.677Z,99150.06
2019-05-20T19:22:42.022Z,99145.75
2019-05-20T19:25:46.399Z,99153.55
2019-05-20T19:28:50.693Z,99164.56
2019-05-20T19:32:01.851Z,99168.39
2019-05-20T19:35:01.411Z,99161.20
2019-05-20T19:38:05.416Z,99167.30
2019-05-20T19:41:10.317Z,99164.69
2019-05-20T19:44:14.354Z,99166.28
2019-05-20T19:47:18.351Z,99172.72
2019-05-20T19:50:22.701Z,99169.13
2019-05-20T19:53:26.994Z,99168.63
2019-05-20T19:56:31.182Z,99172.60
2019-05-20T19:59:35.190Z,99175.82
2019-05-20T20:02:39.420Z,99183.77
2019-05-20T20:05:43.361Z,99169.39
2019-05-20T20:08:47.619Z,99170.86
2019-05-20T20:11:51.629Z,99176.08
2019-05-20T20:14:55.496Z,99172.86
2019-05-20T20:18:00.210Z,99173.84
2019-05-20T20:21:04.628Z,99178.31
2019-05-20T20:24:09.488Z,99184.02
2019-05-20T20:27:13.535Z,99180.92
2019-05-20T20:30:18.085Z,99187.48
2019-05-20T20:33:21.941Z,99182.75
2019-05-20T20:36:25.885Z,99180.14
2019-05-20T20:39:29.881Z,99183.85
2019-05-20T20:42:34.086Z,99180.63
2019-05-20T20:45:38.349Z,99188.05
2019-05-20T20:48:42.489Z,99177.27
2019-05-20T20:51:46.426Z,99179.88
2019-05-20T20:54:51.262Z,99189.91
2019-05-20T20:57:56.043Z,99189.91
2019-05-20T21:01:01.008Z,99190.28
2019-05-20T21:04:05.213Z,99187.70
2019-05-20T21:07:09.836Z,99184.61
2019-05-20T21:10:14.155Z,99188.31
2019-05-20T21:13:19.254Z,99187.22
2019-05-20T21:16:23.181Z,99182.48
2019-05-20T21:19:28.396Z,99191.16
2019-05-20T21:22:32.269Z,99190.43
2019-05-20T21:25:37.360Z,99192.41
2019-05-20T21:28:41.582Z,99188.09
2019-05-20T21:31:45.814Z,99184.61
2019-05-20T21:34:50.346Z,99181.12
2019-05-20T21:37:54.929Z,99186.34
2019-05-20T21:40:59.070Z,99184.87
2019-05-20T21:44:03.374Z,99186.72
2019-05-20T21:47:08.358Z,99183.13
2019-05-20T21:50:30.480Z,99188.46
2019-05-20T21:53:34.817Z,99191.53
2019-05-20T21:56:39.088Z,99186.04
2019-05-20T21:59:43.196Z,99191.11
2019-05-20T22:02:47.713Z,99188.72
2019-05-20T22:05:52.459Z,99191.70
2019-05-20T22:08:56.788Z,99197.41
2019-05-20T22:12:01.462Z,99192.95
2019-05-20T22:15:05.665Z,99195.30
2019-05-20T22:18:09.835Z,99192.45
2019-05-20T22:21:15.703Z,99202.33
2019-05-20T22:24:19.924Z,99202.33
2019-05-20T22:27:24.139Z,99210.66
2019-05-20T22:30:28.259Z,99201.62
2019-05-20T22:33:40.880Z,99214.86
2019-05-20T22:36:38.226Z,99215.02
2019-05-20T22:39:42.780Z,99216.37
2019-05-20T22:42:47.393Z,99204.84
2019-05-20T22:45:51.796Z,99209.19
2019-05-20T22:48:56.249Z,99210.92
2019-05-20T22:52:00.265Z,99202.97
2019-05-20T22:55:04.785Z,99206.41
2019-05-20T22:58:08.960Z,99202.53
2019-05-20T23:01:13.202Z,99204.59
2019-05-20T23:04:17.625Z,99196.09
2019-05-20T23:07:21.829Z,99200.31
2019-05-20T23:10:25.753Z,99197.73
2019-05-20T23:13:30.349Z,99196.70
2019-05-20T23:16:34.365Z,99196.81
2019-05-20T23:19:39.363Z,99187.87
2019-05-20T23:22:44.006Z,99184.66
2019-05-20T23:25:48.365Z,99189.12
2019-05-20T23:28:52.487Z,99191.24
2019-05-20T23:31:56.750Z,99185.20
2019-05-20T23:35:01.451Z,99179.13
2019-05-20T23:38:05.650Z,99183.92
2019-05-20T23:41:09.597Z,99179.47
2019-05-20T23:44:13.937Z,99197.53
2019-05-20T23:47:18.084Z,99174.90
2019-05-20T23:50:22.340Z,99182.32
2019-05-20T23:53:26.817Z,99173.40
2019-05-20T23:56:31.476Z,99171.44
2019-05-20T23:59:35.374Z,99180.25
